createdAt,value
2023-04-07T00:02:08.966Z,4.10
2023-04-07T00:04:36.722Z,4.25
2023-04-07T00:07:03.962Z,3.00
2023-04-07T00:09:31.367Z,3.60
2023-04-07T00:11:58.418Z,3.75
2023-04-07T00:14:25.872Z,4.18
2023-04-07T00:16:52.875Z,4.78
2023-04-07T00:19:20.190Z,4.30
2023-04-07T00:21:47.248Z,3.08
2023-04-07T00:24:20.998Z,3.30
2023-04-07T00:26:54.525Z,3.50
2023-04-07T00:29:21.751Z,5.35
2023-04-07T00:31:49.365Z,4.35
2023-04-07T00:34:16.603Z,5.80
2023-04-07T00:36:43.695Z,4.85
2023-04-07T00:39:11.070Z,7.07
2023-04-07T00:41:38.116Z,5.85
2023-04-07T00:44:05.572Z,3.45
2023-04-07T00:46:32.818Z,4.68
2023-04-07T00:49:01.140Z,5.63
2023-04-07T00:51:28.788Z,4.03
2023-04-07T00:53:56.771Z,4.15
2023-04-07T00:56:24.863Z,5.45
2023-04-07T00:58:52.348Z,4.15
2023-04-07T01:01:24.341Z,4.53
2023-04-07T01:04:04.477Z,5.23
2023-04-07T01:06:35.653Z,4.78
2023-04-07T01:09:05.878Z,4.78
2023-04-07T01:11:48.568Z,3.58
2023-04-07T01:14:20.853Z,3.90
2023-04-07T01:17:01.789Z,5.07
2023-04-07T01:19:45.252Z,6.03
2023-04-07T01:22:41.712Z,4.15
2023-04-07T01:25:30.786Z,4.72
2023-04-07T01:28:22.697Z,4.47
2023-04-07T01:30:51.980Z,4.00
2023-04-07T01:33:21.025Z,4.25
2023-04-07T01:35:50.234Z,4.60
2023-04-07T01:38:18.616Z,4.68
2023-04-07T01:40:47.594Z,2.88
2023-04-07T01:43:18.907Z,2.50
2023-04-07T01:45:47.431Z,2.95
2023-04-07T01:48:16.608Z,4.97
2023-04-07T01:50:46.477Z,4.03
2023-04-07T01:53:15.829Z,4.15
2023-04-07T01:55:46.583Z,4.90
2023-04-07T01:58:13.802Z,4.10
2023-04-07T02:00:43.660Z,2.85
2023-04-07T02:03:29.890Z,3.53
2023-04-07T02:06:07.192Z,4.28
2023-04-07T02:08:37.014Z,4.85
2023-04-07T02:11:10.405Z,4.57
2023-04-07T02:13:38.141Z,4.38
2023-04-07T02:16:07.516Z,4.07
2023-04-07T02:18:35.819Z,3.75
2023-04-07T02:21:04.927Z,4.63
2023-04-07T02:23:35.780Z,3.95
2023-04-07T02:26:03.328Z,3.60
2023-04-07T02:28:30.816Z,3.47
2023-04-07T02:30:57.948Z,4.22
2023-04-07T02:33:25.657Z,2.33
2023-04-07T02:35:52.943Z,2.92
2023-04-07T02:38:21.488Z,3.03
2023-04-07T02:40:48.614Z,3.42
2023-04-07T02:43:17.970Z,3.00
2023-04-07T02:45:45.548Z,3.05
2023-04-07T02:48:13.290Z,4.47
2023-04-07T02:50:42.307Z,2.65
2023-04-07T02:53:11.493Z,2.00
2023-04-07T02:55:39.399Z,3.47
2023-04-07T02:58:10.172Z,3.70
2023-04-07T03:00:42.036Z,1.98
2023-04-07T03:03:13.518Z,3.72
2023-04-07T03:05:45.669Z,3.28
2023-04-07T03:08:18.148Z,3.50
2023-04-07T03:10:45.721Z,3.35
2023-04-07T03:13:17.386Z,3.08
2023-04-07T03:15:46.157Z,2.47
2023-04-07T03:18:15.457Z,3.80
2023-04-07T03:20:45.416Z,3.55
2023-04-07T03:23:16.381Z,3.50
2023-04-07T03:25:46.857Z,4.65
2023-04-07T03:28:16.379Z,3.55
2023-04-07T03:30:44.200Z,2.80
2023-04-07T03:33:16.835Z,2.90
2023-04-07T03:35:46.102Z,3.28
2023-04-07T03:38:13.990Z,3.63
2023-04-07T03:40:43.380Z,4.90
2023-04-07T03:43:14.757Z,3.00
2023-04-07T03:45:43.560Z,3.80
2023-04-07T03:48:12.610Z,3.40
2023-04-07T03:50:52.060Z,2.20
2023-04-07T03:53:20.411Z,3.53
2023-04-07T03:55:48.634Z,4.68
2023-04-07T03:58:28.206Z,3.47
2023-04-07T04:00:57.006Z,3.65
2023-04-07T04:03:25.258Z,3.03
2023-04-07T04:06:20.110Z,3.53
2023-04-07T04:08:52.105Z,2.40
2023-04-07T04:11:23.290Z,3.58
2023-04-07T04:14:02.024Z,4.97
2023-04-07T04:16:31.805Z,4.90
2023-04-07T04:19:04.539Z,5.07
2023-04-07T04:21:32.993Z,2.75
2023-04-07T04:24:02.483Z,3.63
2023-04-07T04:26:31.402Z,3.25
2023-04-07T04:29:05.484Z,3.22
2023-04-07T04:31:33.937Z,3.67
2023-04-07T04:34:01.588Z,3.38
2023-04-07T04:36:31.078Z,3.75
2023-04-07T04:39:04.367Z,3.58
2023-04-07T04:41:34.429Z,3.22
2023-04-07T04:44:03.421Z,3.72
2023-04-07T04:46:32.235Z,3.15
2023-04-07T04:49:00.279Z,4.90
2023-04-07T04:51:28.271Z,3.85
2023-04-07T04:54:04.120Z,4.30
2023-04-07T04:56:32.770Z,4.90
2023-04-07T04:59:01.456Z,3.55
2023-04-07T05:01:43.565Z,3.65
2023-04-07T05:04:15.476Z,2.78
2023-04-07T05:06:53.089Z,3.80
2023-04-07T05:09:25.741Z,2.20
2023-04-07T05:11:53.574Z,3.35
2023-04-07T05:14:21.871Z,2.63
2023-04-07T05:16:55.500Z,3.88
2023-04-07T05:19:29.977Z,3.22
2023-04-07T05:22:04.135Z,4.43
2023-04-07T05:24:37.318Z,3.80
2023-04-07T05:27:05.656Z,3.38
2023-04-07T05:29:34.342Z,3.10
2023-04-07T05:32:03.483Z,3.00
2023-04-07T05:34:34.563Z,3.63
2023-04-07T05:37:03.664Z,2.72
2023-04-07T05:39:32.161Z,3.88
2023-04-07T05:42:04.518Z,3.42
2023-04-07T05:44:35.510Z,3.00
2023-04-07T05:47:07.043Z,2.95
2023-04-07T05:49:38.708Z,2.45
2023-04-07T05:52:08.866Z,3.25
2023-04-07T05:54:42.103Z,3.95
2023-04-07T05:57:13.165Z,2.60
2023-04-07T05:59:45.732Z,3.17
2023-04-07T06:02:14.636Z,2.47
2023-04-07T06:04:45.946Z,2.07
2023-04-07T06:07:17.803Z,2.65
2023-04-07T06:09:46.075Z,3.08
2023-04-07T06:12:13.692Z,2.75
2023-04-07T06:14:41.649Z,2.35
2023-04-07T06:17:09.685Z,2.90
2023-04-07T06:19:37.765Z,3.38
2023-04-07T06:22:05.980Z,2.53
2023-04-07T06:24:34.072Z,2.78
2023-04-07T06:27:04.636Z,2.58
2023-04-07T06:29:33.933Z,2.50
2023-04-07T06:32:05.204Z,2.47
2023-04-07T06:34:33.469Z,2.33
2023-04-07T06:37:02.385Z,2.65
2023-04-07T06:39:31.837Z,1.52
2023-04-07T06:42:03.761Z,2.33
2023-04-07T06:44:37.851Z,1.70
2023-04-07T06:47:06.016Z,2.42
2023-04-07T06:49:35.126Z,2.90
2023-04-07T06:52:05.463Z,3.38
2023-04-07T06:54:33.551Z,2.35
2023-04-07T06:57:01.777Z,2.15
2023-04-07T06:59:30.048Z,2.03
2023-04-07T07:01:58.661Z,1.85
2023-04-07T07:04:27.710Z,2.33
2023-04-07T07:06:57.553Z,2.00
2023-04-07T07:09:26.020Z,2.20
2023-04-07T07:11:54.171Z,1.58
2023-04-07T07:14:21.966Z,2.20
2023-04-07T07:16:51.466Z,2.00
2023-04-07T07:19:19.775Z,1.95
2023-04-07T07:21:49.315Z,2.45
2023-04-07T07:24:17.916Z,3.15
2023-04-07T07:26:46.500Z,1.63
2023-04-07T07:29:21.157Z,2.42
2023-04-07T07:31:49.755Z,2.72
2023-04-07T07:34:17.340Z,2.55
2023-04-07T07:36:46.722Z,2.22
2023-04-07T07:39:15.509Z,2.85
2023-04-07T07:41:44.718Z,3.65
2023-04-07T07:44:12.740Z,2.47
2023-04-07T07:46:42.538Z,1.98
2023-04-07T07:49:10.437Z,2.55
2023-04-07T07:51:39.139Z,2.28
2023-04-07T07:54:08.265Z,2.75
2023-04-07T07:56:37.229Z,2.78
2023-04-07T07:59:08.393Z,2.33
2023-04-07T08:01:36.215Z,2.75
2023-04-07T08:04:04.751Z,2.45
2023-04-07T08:06:32.790Z,4.10
2023-04-07T08:09:00.637Z,2.92
2023-04-07T08:11:31.724Z,3.40
2023-04-07T08:16:27.743Z,2.00
2023-04-07T08:18:56.456Z,3.15
2023-04-07T08:21:24.642Z,2.28
2023-04-07T08:23:53.257Z,3.58
2023-04-07T08:26:21.515Z,2.35
2023-04-07T08:28:54.309Z,2.03
2023-04-07T08:31:22.882Z,2.22
2023-04-07T08:33:54.394Z,2.03
2023-04-07T08:36:22.452Z,2.37
2023-04-07T08:38:50.981Z,2.17
2023-04-07T08:41:39.889Z,2.40
2023-04-07T08:44:10.785Z,3.08
2023-04-07T08:46:43.135Z,2.90
2023-04-07T08:49:14.681Z,2.75
2023-04-07T08:51:47.995Z,2.03
2023-04-07T08:54:19.324Z,2.10
2023-04-07T08:56:47.776Z,2.67
2023-04-07T08:59:18.960Z,2.45
2023-04-07T09:01:48.435Z,2.60
2023-04-07T09:04:28.004Z,2.38
2023-04-07T09:06:56.265Z,2.42
2023-04-07T09:09:24.488Z,2.20
2023-04-07T09:11:53.242Z,2.20
2023-04-07T09:14:23.486Z,2.42
2023-04-07T09:16:51.428Z,2.40
2023-04-07T09:19:18.399Z,2.30
2023-04-07T09:21:53.525Z,2.45
2023-04-07T09:24:28.248Z,2.08
2023-04-07T09:27:29.496Z,2.33
2023-04-07T09:30:18.047Z,2.67
2023-04-07T09:32:46.219Z,2.83
2023-04-07T09:35:15.273Z,3.22
2023-04-07T09:37:43.032Z,3.03
2023-04-07T09:40:12.722Z,2.25
2023-04-07T09:42:51.546Z,3.05
2023-04-07T09:48:06.796Z,3.50
2023-04-07T09:50:41.631Z,2.70
2023-04-07T09:53:09.917Z,2.60
2023-04-07T09:55:37.863Z,3.15
2023-04-07T09:58:06.780Z,2.95
2023-04-07T10:00:38.245Z,2.90
2023-04-07T10:03:06.453Z,2.53
2023-04-07T10:05:37.189Z,3.60
2023-04-07T10:08:07.801Z,2.88
2023-04-07T10:10:37.792Z,2.67
2023-04-07T10:13:10.820Z,2.70
2023-04-07T10:18:11.437Z,2.50
2023-04-07T10:20:43.216Z,2.13
2023-04-07T10:23:20.028Z,2.15
2023-04-07T10:25:51.176Z,2.40
2023-04-07T10:28:22.766Z,2.70
2023-04-07T10:30:54.442Z,3.35
2023-04-07T10:33:52.616Z,2.53
2023-04-07T10:36:22.848Z,2.67
2023-04-07T10:39:09.676Z,2.72
2023-04-07T10:41:38.061Z,2.58
2023-04-07T10:44:07.814Z,2.60
2023-04-07T10:46:48.815Z,3.03
2023-04-07T10:49:18.899Z,2.97
2023-04-07T10:52:13.699Z,2.80
2023-04-07T10:54:44.747Z,3.00
2023-04-07T10:57:16.596Z,2.83
2023-04-07T11:00:11.070Z,2.47
2023-04-07T11:02:41.176Z,3.00
2023-04-07T11:05:09.341Z,2.85
2023-04-07T11:07:56.051Z,2.85
2023-04-07T11:10:24.129Z,3.10
2023-04-07T11:13:07.266Z,2.63
2023-04-07T11:15:40.783Z,2.97
2023-04-07T11:18:21.234Z,3.92
2023-04-07T11:20:54.957Z,2.60
2023-04-07T11:23:25.843Z,2.40
2023-04-07T11:26:04.897Z,3.03
2023-04-07T11:28:33.936Z,3.05
2023-04-07T11:31:02.302Z,2.67
2023-04-07T11:33:35.348Z,3.25
2023-04-07T11:36:04.328Z,2.45
2023-04-07T11:38:40.267Z,3.38
2023-04-07T11:41:28.137Z,2.75
2023-04-07T11:44:09.861Z,3.75
2023-04-07T11:46:53.018Z,2.40
2023-04-07T11:49:21.837Z,3.00
2023-04-07T11:51:49.893Z,2.65
2023-04-07T11:54:17.958Z,2.92
2023-04-07T11:56:48.115Z,2.90
2023-04-07T11:59:24.375Z,2.05
2023-04-07T12:01:56.063Z,2.00
2023-04-07T12:04:24.996Z,2.33
2023-04-07T12:06:53.553Z,2.70
2023-04-07T12:09:36.571Z,2.40
2023-04-07T12:12:08.461Z,2.25
2023-04-07T12:17:04.505Z,2.22
2023-04-07T12:19:36.648Z,2.15
2023-04-07T12:24:33.650Z,2.05
2023-04-07T12:27:01.772Z,1.98
2023-04-07T12:29:30.133Z,2.35
2023-04-07T12:31:58.133Z,2.05
2023-04-07T12:34:25.716Z,1.73
2023-04-07T12:36:53.966Z,1.85
2023-04-07T12:39:22.266Z,2.45
2023-04-07T12:41:53.434Z,2.35
2023-04-07T12:44:21.592Z,2.38
2023-04-07T12:46:49.124Z,2.05
2023-04-07T12:49:16.921Z,2.30
2023-04-07T12:51:44.411Z,1.60
2023-04-07T12:54:11.648Z,2.55
2023-04-07T12:56:40.601Z,1.77
2023-04-07T12:59:08.876Z,2.55
2023-04-07T13:01:37.748Z,2.03
2023-04-07T13:04:05.849Z,2.47
2023-04-07T13:06:33.737Z,1.75
2023-04-07T13:09:01.517Z,1.88
2023-04-07T13:11:28.783Z,2.22
2023-04-07T13:13:57.466Z,1.80
2023-04-07T13:16:27.548Z,1.90
2023-04-07T13:18:55.746Z,1.98
2023-04-07T13:23:53.724Z,1.85
2023-04-07T13:26:21.782Z,2.00
2023-04-07T13:28:49.168Z,2.50
2023-04-07T13:31:16.858Z,2.75
2023-04-07T13:33:44.787Z,2.78
2023-04-07T13:36:12.527Z,2.22
2023-04-07T13:38:39.938Z,2.10
2023-04-07T13:41:07.911Z,2.45
2023-04-07T13:43:35.156Z,2.10
2023-04-07T13:46:03.180Z,1.67
2023-04-07T13:48:31.707Z,2.47
2023-04-07T13:50:59.584Z,2.13
2023-04-07T13:53:27.014Z,1.75
2023-04-07T13:55:54.521Z,2.08
2023-04-07T13:58:21.848Z,1.80
2023-04-07T14:00:49.142Z,3.83
2023-04-07T14:03:16.534Z,1.55
2023-04-07T14:05:43.938Z,2.03
2023-04-07T14:08:11.654Z,2.83
2023-04-07T14:10:40.335Z,2.10
2023-04-07T14:13:07.745Z,1.73
2023-04-07T14:15:34.838Z,2.63
2023-04-07T14:18:02.242Z,1.95
2023-04-07T14:20:29.707Z,1.73
2023-04-07T14:22:56.938Z,1.63
2023-04-07T14:25:24.789Z,2.38
2023-04-07T14:27:52.923Z,2.20
2023-04-07T14:30:20.648Z,2.17
2023-04-07T14:32:48.732Z,2.40
2023-04-07T14:35:16.520Z,2.80
2023-04-07T14:37:43.760Z,2.65
2023-04-07T14:40:11.651Z,3.00
2023-04-07T14:42:39.860Z,2.13
2023-04-07T14:45:07.759Z,2.45
2023-04-07T14:47:35.610Z,2.78
2023-04-07T14:50:03.065Z,2.00
2023-04-07T14:52:31.642Z,2.63
2023-04-07T14:55:00.440Z,2.60
2023-04-07T14:57:28.026Z,3.15
2023-04-07T14:59:55.439Z,2.22
2023-04-07T15:02:23.398Z,3.00
2023-04-07T15:04:51.675Z,2.90
2023-04-07T15:07:19.462Z,3.15
2023-04-07T15:09:48.761Z,2.60
2023-04-07T15:12:16.888Z,2.33
2023-04-07T15:14:47.422Z,2.67
2023-04-07T15:17:15.440Z,2.58
2023-04-07T15:19:43.969Z,2.92
2023-04-07T15:22:12.051Z,3.47
2023-04-07T15:24:39.682Z,3.85
2023-04-07T15:27:09.572Z,2.45
2023-04-07T15:29:37.875Z,2.47
2023-04-07T15:32:05.905Z,2.45
2023-04-07T15:34:33.492Z,2.17
2023-04-07T15:37:02.781Z,2.70
2023-04-07T15:39:31.464Z,3.92
2023-04-07T15:41:59.440Z,3.10
2023-04-07T15:44:27.435Z,2.92
2023-04-07T15:46:55.063Z,2.67
2023-04-07T15:49:23.713Z,3.80
2023-04-07T15:51:53.434Z,2.42
2023-04-07T15:54:21.242Z,2.63
2023-04-07T15:56:49.442Z,2.08
2023-04-07T15:59:17.690Z,2.85
2023-04-07T16:01:46.772Z,2.92
2023-04-07T16:04:15.073Z,3.45
2023-04-07T16:06:42.393Z,2.95
2023-04-07T16:09:09.732Z,2.88
2023-04-07T16:11:37.203Z,3.28
2023-04-07T16:14:04.974Z,2.80
2023-04-07T16:16:36.212Z,2.90
2023-04-07T16:19:03.653Z,3.47
2023-04-07T16:21:31.973Z,3.28
2023-04-07T16:23:59.267Z,2.38
2023-04-07T16:26:27.411Z,2.28
2023-04-07T16:28:54.938Z,4.10
2023-04-07T16:31:22.966Z,2.30
2023-04-07T16:33:51.739Z,3.92
2023-04-07T16:36:19.483Z,3.10
2023-04-07T16:38:48.065Z,2.50
2023-04-07T16:41:15.607Z,3.03
2023-04-07T16:43:43.544Z,2.67
2023-04-07T16:46:11.555Z,5.50
2023-04-07T16:48:41.424Z,4.85
2023-04-07T16:51:09.365Z,5.20
2023-04-07T16:53:37.944Z,5.85
2023-04-07T16:56:06.618Z,6.38
2023-04-07T16:58:34.097Z,9.52
2023-04-07T17:01:04.324Z,8.15
2023-04-07T17:03:31.762Z,7.55
2023-04-07T17:06:04.813Z,12.27
2023-04-07T17:08:36.281Z,21.95
2023-04-07T17:11:07.543Z,54.45
2023-04-07T17:13:35.015Z,56.75
2023-04-07T17:16:04.315Z,27.33
2023-04-07T17:18:33.345Z,15.57
2023-04-07T17:21:00.452Z,11.93
2023-04-07T17:23:28.553Z,10.68
2023-04-07T17:25:55.602Z,10.18
2023-04-07T17:28:22.902Z,12.80
2023-04-07T17:30:50.673Z,11.65
2023-04-07T17:33:17.789Z,13.57
2023-04-07T17:35:47.708Z,17.13
2023-04-07T17:38:15.670Z,15.98
2023-04-07T17:40:43.093Z,16.20
2023-04-07T17:43:11.321Z,21.98
2023-04-07T17:45:38.740Z,24.30
2023-04-07T17:48:09.921Z,25.75
2023-04-07T17:50:38.106Z,17.05
2023-04-07T17:53:05.444Z,15.88
2023-04-07T17:55:33.223Z,10.98
2023-04-07T17:58:03.134Z,12.65
2023-04-07T18:00:30.367Z,10.05
2023-04-07T18:02:57.801Z,11.02
2023-04-07T18:05:26.303Z,9.90
2023-04-07T18:07:55.076Z,4.47
2023-04-07T18:10:22.673Z,4.10
2023-04-07T18:12:50.932Z,5.90
2023-04-07T18:15:18.382Z,3.63
2023-04-07T18:17:47.724Z,5.95
2023-04-07T18:20:15.494Z,8.95
2023-04-07T18:22:42.692Z,6.10
2023-04-07T18:25:10.201Z,7.00
2023-04-07T18:27:37.006Z,12.05
2023-04-07T18:30:09.009Z,8.55
2023-04-07T18:32:36.420Z,6.35
2023-04-07T18:35:06.051Z,7.03
2023-04-07T18:37:33.252Z,6.53
2023-04-07T18:40:00.918Z,7.20
2023-04-07T18:42:28.300Z,6.65
2023-04-07T18:44:55.684Z,5.90
2023-04-07T18:47:22.975Z,7.95
2023-04-07T18:49:50.581Z,6.35
2023-04-07T18:52:18.216Z,5.18
2023-04-07T18:54:45.552Z,6.97
2023-04-07T18:57:13.111Z,7.97
2023-04-07T18:59:40.303Z,8.35
2023-04-07T19:02:08.111Z,7.63
2023-04-07T19:04:35.451Z,7.18
2023-04-07T19:07:03.876Z,7.70
2023-04-07T19:09:30.996Z,7.88
2023-04-07T19:11:58.019Z,12.00
2023-04-07T19:14:25.445Z,8.10
2023-04-07T19:16:53.121Z,8.85
2023-04-07T19:19:20.363Z,9.63
2023-04-07T19:21:47.603Z,6.82
2023-04-07T19:24:15.060Z,6.28
2023-04-07T19:26:43.316Z,7.88
2023-04-07T19:29:12.714Z,10.73
2023-04-07T19:31:40.421Z,8.68
2023-04-07T19:34:07.657Z,8.48
2023-04-07T19:36:36.161Z,8.48
2023-04-07T19:39:05.132Z,10.68
2023-04-07T19:41:32.467Z,9.52
2023-04-07T19:43:59.785Z,7.68
2023-04-07T19:46:27.014Z,11.27
2023-04-07T19:48:54.063Z,10.32
2023-04-07T19:51:21.360Z,7.43
2023-04-07T19:53:48.593Z,10.20
2023-04-07T19:56:16.025Z,7.93
2023-04-07T19:58:43.260Z,8.05
2023-04-07T20:01:17.825Z,8.88
2023-04-07T20:03:45.356Z,8.35
2023-04-07T20:06:15.306Z,8.60
2023-04-07T20:08:43.011Z,6.22
2023-04-07T20:11:13.436Z,10.48
2023-04-07T20:13:42.695Z,6.82
2023-04-07T20:16:10.127Z,7.68
2023-04-07T20:18:37.376Z,8.85
2023-04-07T20:21:08.091Z,6.43
2023-04-07T20:23:35.391Z,9.15
2023-04-07T20:26:02.596Z,7.90
2023-04-07T20:28:29.878Z,7.47
2023-04-07T20:30:56.957Z,8.13
2023-04-07T20:33:24.103Z,8.40
2023-04-07T20:35:51.289Z,7.53
2023-04-07T20:38:19.326Z,7.82
2023-04-07T20:40:46.952Z,8.63
2023-04-07T20:43:15.494Z,5.97
2023-04-07T20:45:42.877Z,9.18
2023-04-07T20:48:09.838Z,9.82
2023-04-07T20:50:38.591Z,7.38
2023-04-07T20:53:05.396Z,8.27
2023-04-07T20:55:33.064Z,8.63
2023-04-07T20:58:00.498Z,9.57
2023-04-07T21:00:27.699Z,6.43
2023-04-07T21:02:54.896Z,9.32
2023-04-07T21:05:22.355Z,8.07
2023-04-07T21:07:49.584Z,7.75
2023-04-07T21:10:16.629Z,7.60
2023-04-07T21:12:46.563Z,10.75
2023-04-07T21:15:13.494Z,7.72
2023-04-07T21:17:41.007Z,8.27
2023-04-07T21:20:08.768Z,7.20
2023-04-07T21:22:36.025Z,8.52
2023-04-07T21:25:07.207Z,8.27
2023-04-07T21:27:36.047Z,8.85
2023-04-07T21:30:06.914Z,9.52
2023-04-07T21:32:33.747Z,8.65
2023-04-07T21:35:01.281Z,9.65
2023-04-07T21:37:28.259Z,10.73
2023-04-07T21:39:55.762Z,9.48
2023-04-07T21:42:22.813Z,8.55
2023-04-07T21:44:50.033Z,8.32
2023-04-07T21:47:17.817Z,8.35
2023-04-07T21:49:45.010Z,9.05
2023-04-07T21:52:12.737Z,9.40
2023-04-07T21:54:40.097Z,9.23
2023-04-07T21:57:07.934Z,8.25
2023-04-07T21:59:36.166Z,9.98
2023-04-07T22:02:03.865Z,10.35
2023-04-07T22:04:32.211Z,8.73
2023-04-07T22:06:59.537Z,11.07
2023-04-07T22:09:27.527Z,9.57
2023-04-07T22:11:54.867Z,9.77
2023-04-07T22:14:25.106Z,9.13
2023-04-07T22:16:52.982Z,10.70
2023-04-07T22:19:20.109Z,9.18
2023-04-07T22:21:49.683Z,12.48
2023-04-07T22:24:16.767Z,10.15
2023-04-07T22:26:43.595Z,9.85
2023-04-07T22:29:12.019Z,8.80
2023-04-07T22:31:39.192Z,9.77
2023-04-07T22:34:06.521Z,8.68
2023-04-07T22:36:34.611Z,11.88
2023-04-07T22:39:01.782Z,9.88
2023-04-07T22:41:28.863Z,9.27
2023-04-07T22:43:55.860Z,9.48
2023-04-07T22:46:23.137Z,9.30
2023-04-07T22:48:51.054Z,8.20
2023-04-07T22:51:18.138Z,7.90
2023-04-07T22:53:45.963Z,10.15
2023-04-07T22:56:13.457Z,9.00
2023-04-07T22:58:40.487Z,10.65
2023-04-07T23:01:07.382Z,9.55
2023-04-07T23:03:34.588Z,9.32
2023-04-07T23:06:02.791Z,8.70
2023-04-07T23:08:29.954Z,9.00
2023-04-07T23:10:57.103Z,12.48
2023-04-07T23:13:24.444Z,9.45
2023-04-07T23:15:51.671Z,10.63
2023-04-07T23:18:18.775Z,9.13
2023-04-07T23:20:52.428Z,7.80
2023-04-07T23:23:19.625Z,10.43
2023-04-07T23:25:46.789Z,9.05
2023-04-07T23:28:13.975Z,9.90
2023-04-07T23:30:42.427Z,7.95
2023-04-07T23:33:09.467Z,10.70
2023-04-07T23:35:36.742Z,10.13
2023-04-07T23:38:04.895Z,10.50
2023-04-07T23:40:32.349Z,9.15
2023-04-07T23:42:59.810Z,10.00
2023-04-07T23:45:26.796Z,10.20
2023-04-07T23:47:53.887Z,8.18
2023-04-07T23:50:21.121Z,11.55
2023-04-07T23:52:48.165Z,8.65
2023-04-07T23:55:15.036Z,9.50
2023-04-07T23:57:43.162Z,9.85
